Alvin, TX (77511)

3:29 AM CST on February 13, 2016 (GMT -0600)
CoffeeMuses | | Change Station
CLOSE
Current Station
Personal Weather Station
Location: Alvin, TX
Elevation: 39 ft
Nearby Weather Stations
Active Advisory: Dense Fog Advisory

Elev 39 ft 29.41 °N, 95.23 °W | Updated 7 minutes ago

Partly Cloudy
Partly Cloudy
50.2 °F
Feels Like 50.2 °F
N
0.0
Wind Variable Wind from North

Today
High -- | Low -- °F
--% Chance of Precip.
Yesterday
High -- | Low -- °F
Precip. -- in
Pressure 30.29 in
Visibility 10.0 miles
Clouds Clear
Dew Point 50 °F
Humidity 99%
Rainfall 0.00 in
Snow Depth Not available.
7:02 AM 6:08 PM
Waxing Crescent, 29% visible
METAR KLVJ 130853Z AUTO 00000KT 10SM CLR 12/11 A3029 RMK AO2 SLP257 T01220106 55001
Pressure 30.29 in
Visibility 10.0 miles
Clouds Clear
Dew Point 50 °F
Humidity 99%
Rainfall 0.00 in
Snow Depth Not available.
7:02 AM 6:08 PM
Waxing Crescent, 29% visible
METAR KLVJ 130853Z AUTO 00000KT 10SM CLR 12/11 A3029 RMK AO2 SLP257 T01220106 55001

10-Day Weather Forecast

Almanac

Astronomy

Feb. 13, 2016 Rise Set
Actual Time
Civil Twilight
Nautical Twilight
Astronomical Twilight
Moon
Length of Visible Light
Length of Day
Tomorrow will be .
, % of the Moon is Illuminated

Today's Extremes

State Highs State Lows

Community

WunderPhotos

Upload Photos

1,892,536 photos uploaded!

WunderBlog® & News

Nearby

Air Quality

  Air Quality AQ Index Pollutant
Not available.

Snow Depth

Station Depth Elevation

Earthquake Activity

City Distance Mag. Time & Date
Minimum magnitude displayed is 2.5.

Coastal Water Temperatures

Place Temperature

Stations

Nearby Weather Stations

Station Location Temp. Windchill Dew Point Humidity Wind Precip. Elev Updated Type
                   

Watches & Warnings

Dense Fog Advisory
Issued: 11:47 PM CST Feb. 12, 2016 – National Weather Service

... Dense fog advisory in effect until 9 am CST Saturday...

The National Weather Service in Houston/Galveston has issued a
dense fog advisory... which is in effect until 9 am CST Saturday.

* Event... areas of dense fog with visibilities of one quarter mile
or less.

* Timing... through mid morning.

* Impact... driving will be hazardous in areas of dense fog.

Precautionary/preparedness actions...

A dense fog advisory means visibilities will frequently be
reduced to less than one quarter mile. If driving... slow down...
use your headlights... and leave plenty of distance ahead of you.